Edmond, Oklahoma
Current Conditions -  °F | °C
As of 12:53 AM on Thursday 27 Nov 2014 (Local Time) from KPWA Reporting Station
Clear Clear  
Wind Chill: 29°   Ceiling: Unl
Heat Index: 35°   Visibility: 10mi
Dew Point: 24°   Wind: 8mph
Humidity: 64%   Direction: 330°NNW
Pressure: 30.48"   Gusts: NA
Location:  35.65°N, 97.48°W
Report Text: KPWA 270653Z AUTO 33007KT 10SM CLR 02/M04 A3048 RMK AO2 SLP324 T00171044
Loading
Personal Weather Stations






























Interactive Weather Map New forecast layout! Learn more

10-Day Weather Forecast

Advertisements
Track Severe Weather on mobile